Time;durP1;ratioP1;P1;durP2;ratioP2;P2;SDS_P1;SDS_P2;PMS_P1;PMS_P2;Temp;Humidity;BMP_temperature;BMP_pressure;BME280_temperature;BME280_humidity;BME280_pressure;Samples;Min_cycle;Max_cycle;Signal;HPM_P1;HPM_P2
2023/04/28 00:01:48;;;;;;;3.97;3.23;;;;;;;;;;514011;231;27503;-73
2023/04/28 00:03:49;;;;;;;3.07;2.87;;;11.60;99.90;;;;;;514028;231;27706;-72
2023/04/28 00:05:50;;;;;;;3.33;2.83;;;11.60;99.90;;;;;;513940;231;28626;-73
2023/04/28 00:07:52;;;;;;;4.07;3.00;;;11.60;99.90;;;;;;513979;231;28729;-73
2023/04/28 00:09:53;;;;;;;7.53;2.90;;;11.60;99.90;;;;;;514025;231;28996;-73
2023/04/28 00:11:54;;;;;;;4.93;3.47;;;11.60;99.90;;;;;;514027;231;28662;-73
2023/04/28 00:13:55;;;;;;;3.50;3.10;;;11.50;99.90;;;;;;514013;231;29446;-73
2023/04/28 00:15:58;;;;;;;5.10;3.00;;;11.50;99.90;;;;;;513983;231;28226;-73
2023/04/28 00:17:58;;;;;;;3.33;3.03;;;11.50;99.90;;;;;;513946;231;28290;-73
2023/04/28 00:19:59;;;;;;;4.80;3.23;;;11.50;99.90;;;;;;514027;231;28323;-72
2023/04/28 00:22:00;;;;;;;4.30;3.03;;;11.50;99.90;;;;;;514023;231;28405;-72
2023/04/28 00:24:02;;;;;;;5.37;3.10;;;11.60;99.90;;;;;;513978;231;28246;-72
2023/04/28 00:26:03;;;;;;;4.73;3.23;;;11.50;99.90;;;;;;513978;231;28130;-73
2023/04/28 00:28:04;;;;;;;6.20;3.87;;;11.50;99.90;;;;;;514009;231;28271;-73
2023/04/28 00:30:05;;;;;;;7.40;3.70;;;11.40;99.90;;;;;;514030;231;28137;-72
2023/04/28 00:32:07;;;;;;;3.30;3.00;;;11.40;99.90;;;;;;514026;231;28763;-73
2023/04/28 00:34:12;;;;;;;4.83;3.60;;;11.40;99.90;;;;;;514007;231;28536;-73
2023/04/28 00:36:09;;;;;;;3.57;2.73;;;11.30;99.90;;;;;;513664;231;28568;-72
2023/04/28 00:38:10;;;;;;;4.27;3.20;;;11.30;99.90;;;;;;513858;231;28348;-74
2023/04/28 00:40:12;;;;;;;3.70;3.27;;;11.40;99.90;;;;;;514024;231;28331;-73
2023/04/28 00:42:13;;;;;;;3.07;2.70;;;11.50;99.90;;;;;;514028;231;28368;-74
2023/04/28 00:44:14;;;;;;;3.47;3.00;;;11.50;99.90;;;;;;514002;231;27877;-73
2023/04/28 00:46:15;;;;;;;3.43;2.80;;;11.50;99.90;;;;;;513855;231;28441;-72
2023/04/28 00:48:17;;;;;;;3.47;2.90;;;11.50;99.90;;;;;;514042;231;28273;-74
2023/04/28 00:50:18;;;;;;;3.00;2.80;;;11.50;99.90;;;;;;514042;231;28337;-73
2023/04/28 00:52:19;;;;;;;3.93;3.20;;;11.50;99.90;;;;;;514033;231;28270;-73
2023/04/28 00:54:20;;;;;;;5.10;3.00;;;11.50;99.90;;;;;;513990;231;28336;-74
2023/04/28 00:56:22;;;;;;;4.83;3.17;;;11.50;99.90;;;;;;514029;231;28788;-72
2023/04/28 00:58:23;;;;;;;4.30;2.80;;;11.50;99.90;;;;;;514053;231;28912;-74
2023/04/28 01:00:24;;;;;;;3.27;2.97;;;11.40;99.90;;;;;;514036;231;28714;-73
2023/04/28 01:02:25;;;;;;;4.40;2.87;;;11.40;99.90;;;;;;514032;231;28259;-73
2023/04/28 01:04:27;;;;;;;2.77;2.57;;;11.30;99.90;;;;;;513971;231;28250;-72
2023/04/28 01:06:28;;;;;;;3.23;3.00;;;11.30;99.90;;;;;;514043;231;28045;-73
2023/04/28 01:08:29;;;;;;;6.43;3.23;;;11.30;99.90;;;;;;514061;231;28340;-73
2023/04/28 01:10:31;;;;;;;3.53;3.23;;;11.30;99.90;;;;;;514034;231;28419;-72
2023/04/28 01:12:32;;;;;;;3.30;3.00;;;11.30;99.90;;;;;;514005;231;28165;-72
2023/04/28 01:14:33;;;;;;;3.87;3.47;;;11.30;99.90;;;;;;513960;231;28400;-72
2023/04/28 01:16:34;;;;;;;6.17;2.73;;;11.30;99.90;;;;;;514039;231;28031;-73
2023/04/28 01:18:35;;;;;;;3.93;3.53;;;11.20;99.90;;;;;;514038;231;28416;-73
2023/04/28 01:20:37;;;;;;;3.07;2.80;;;11.30;99.90;;;;;;513990;231;28653;-73
2023/04/28 01:22:38;;;;;;;4.20;3.37;;;11.20;99.90;;;;;;514015;231;28750;-74
2023/04/28 01:24:39;;;;;;;3.87;3.47;;;11.10;99.90;;;;;;513967;231;28554;-73
2023/04/28 01:26:40;;;;;;;3.57;3.27;;;11.10;99.90;;;;;;514038;231;28116;-73
2023/04/28 01:28:42;;;;;;;4.73;3.47;;;11.10;99.90;;;;;;513996;231;28152;-73
2023/04/28 01:30:43;;;;;;;8.83;3.53;;;11.10;99.90;;;;;;514035;231;28191;-73
2023/04/28 01:32:44;;;;;;;5.57;3.80;;;11.00;99.90;;;;;;514020;231;28052;-73
2023/04/28 01:34:46;;;;;;;4.97;3.90;;;11.10;99.90;;;;;;513957;231;28148;-73
2023/04/28 01:36:47;;;;;;;11.30;3.97;;;11.00;99.90;;;;;;514035;231;27955;-73
2023/04/28 01:38:48;;;;;;;4.13;3.70;;;10.90;99.90;;;;;;514029;231;28279;-75
2023/04/28 01:40:49;;;;;;;4.83;3.73;;;11.00;99.90;;;;;;514021;231;27988;-73
2023/04/28 01:42:50;;;;;;;5.73;4.40;;;10.90;99.90;;;;;;513973;231;28632;-73
2023/04/28 01:44:52;;;;;;;4.53;3.80;;;10.70;99.90;;;;;;513938;231;29539;-73
2023/04/28 01:46:53;;;;;;;3.60;3.30;;;10.80;99.90;;;;;;514045;231;28389;-72
2023/04/28 01:48:54;;;;;;;9.20;3.50;;;10.80;99.90;;;;;;514029;231;28381;-74
2023/04/28 01:50:55;;;;;;;3.70;3.40;;;10.80;99.90;;;;;;514031;231;28069;-72
2023/04/28 01:52:57;;;;;;;4.13;3.77;;;10.80;99.90;;;;;;513997;231;28064;-74
2023/04/28 01:54:58;;;;;;;6.10;3.40;;;10.90;99.90;;;;;;513956;231;28090;-73
2023/04/28 01:57:01;;;;;;;6.20;3.53;;;10.90;99.90;;;;;;514012;231;28138;-72
2023/04/28 01:59:02;;;;;;;9.53;3.70;;;;;;;;;;513888;231;28150;-73
2023/04/28 02:01:03;;;;;;;5.00;3.90;;;10.70;99.90;;;;;;514043;231;27442;-73
2023/04/28 02:03:04;;;;;;;4.20;3.80;;;10.80;99.90;;;;;;514015;231;28005;-73
2023/04/28 02:05:06;;;;;;;5.00;4.07;;;10.80;99.90;;;;;;513962;231;28243;-73
2023/04/28 02:07:07;;;;;;;3.50;3.23;;;10.80;99.90;;;;;;514079;231;28061;-74
2023/04/28 02:09:08;;;;;;;4.37;3.97;;;10.80;99.90;;;;;;514070;231;27997;-73
2023/04/28 02:11:09;;;;;;;4.67;3.63;;;10.80;99.90;;;;;;514055;231;28255;-73
2023/04/28 02:13:11;;;;;;;4.73;3.80;;;10.90;99.90;;;;;;514063;231;27895;-73
2023/04/28 02:15:12;;;;;;;3.93;3.63;;;10.80;99.90;;;;;;514011;231;28239;-73
2023/04/28 02:17:13;;;;;;;5.60;3.60;;;10.80;99.90;;;;;;514053;231;28100;-74
2023/04/28 02:19:14;;;;;;;3.80;3.40;;;10.80;99.90;;;;;;514078;231;28574;-73
2023/04/28 02:21:15;;;;;;;4.40;3.80;;;10.70;99.90;;;;;;514025;231;28112;-73
2023/04/28 02:23:17;;;;;;;4.73;4.20;;;10.70;99.90;;;;;;514054;231;28049;-73
2023/04/28 02:25:18;;;;;;;4.97;3.90;;;10.70;99.90;;;;;;514005;231;28126;-73
2023/04/28 02:27:19;;;;;;;5.83;4.30;;;10.70;99.90;;;;;;514087;231;28128;-74
2023/04/28 02:29:20;;;;;;;6.10;4.30;;;10.70;99.90;;;;;;514043;231;27885;-73
2023/04/28 02:31:22;;;;;;;6.90;4.50;;;10.70;99.90;;;;;;514079;231;28069;-73
2023/04/28 02:33:23;;;;;;;5.77;3.43;;;10.70;99.90;;;;;;514056;231;27981;-73
2023/04/28 02:35:24;;;;;;;4.40;3.70;;;10.70;99.90;;;;;;513980;231;28036;-73
2023/04/28 02:37:25;;;;;;;4.37;3.97;;;10.70;99.90;;;;;;514064;231;28042;-73
2023/04/28 02:39:28;;;;;;;4.30;3.90;;;10.80;99.90;;;;;;514033;231;28622;-73
2023/04/28 02:41:29;;;;;;;7.30;3.93;;;10.80;99.90;;;;;;513886;231;28554;-74
2023/04/28 02:43:29;;;;;;;3.00;2.70;;;10.80;99.90;;;;;;513905;231;29341;-72
2023/04/28 02:45:31;;;;;;;4.13;3.80;;;10.80;99.90;;;;;;513984;231;28141;-73
2023/04/28 02:47:32;;;;;;;5.03;3.33;;;10.90;99.90;;;;;;514038;231;28101;-74
2023/04/28 02:49:33;;;;;;;4.47;3.47;;;10.90;99.90;;;;;;514042;231;28022;-73
2023/04/28 02:51:34;;;;;;;5.30;3.13;;;10.90;99.90;;;;;;514028;231;28313;-73
2023/04/28 02:53:35;;;;;;;3.60;3.30;;;11.00;99.90;;;;;;514013;231;28056;-72
2023/04/28 02:55:37;;;;;;;6.10;3.70;;;11.00;99.90;;;;;;514009;231;28051;-73
2023/04/28 02:57:38;;;;;;;3.90;3.60;;;10.90;99.90;;;;;;514032;231;28062;-73
2023/04/28 02:59:39;;;;;;;5.70;3.73;;;10.90;99.90;;;;;;514027;231;28216;-73
2023/04/28 03:01:40;;;;;;;4.30;3.90;;;10.90;99.90;;;;;;514015;231;28232;-73
2023/04/28 03:03:42;;;;;;;4.00;3.07;;;10.90;99.90;;;;;;514057;231;28692;-73
2023/04/28 03:05:43;;;;;;;5.27;3.77;;;10.90;99.90;;;;;;513988;231;28517;-73
2023/04/28 03:07:44;;;;;;;4.60;3.40;;;10.90;99.90;;;;;;514054;231;28741;-73
2023/04/28 03:09:45;;;;;;;4.10;3.40;;;10.90;99.90;;;;;;514031;231;27946;-72
2023/04/28 03:11:47;;;;;;;6.20;4.47;;;10.90;99.90;;;;;;514035;231;28171;-73
2023/04/28 03:13:48;;;;;;;3.93;3.53;;;10.90;99.90;;;;;;514047;231;28335;-72
2023/04/28 03:15:49;;;;;;;3.30;3.00;;;10.90;99.90;;;;;;513999;231;28238;-73
2023/04/28 03:17:50;;;;;;;3.80;3.50;;;11.00;99.90;;;;;;514069;231;27950;-73
2023/04/28 03:19:52;;;;;;;7.40;6.20;;;11.00;99.90;;;;;;514052;231;28195;-73
2023/04/28 03:21:53;;;;;;;6.00;5.40;;;10.90;99.90;;;;;;514046;231;28302;-73
2023/04/28 03:23:54;;;;;;;7.07;6.37;;;10.90;99.90;;;;;;514044;231;28018;-73
2023/04/28 03:25:55;;;;;;;6.20;5.60;;;11.00;99.90;;;;;;514004;231;28208;-73
2023/04/28 03:27:57;;;;;;;6.10;5.57;;;11.00;99.90;;;;;;514053;231;28546;-73
2023/04/28 03:29:58;;;;;;;6.93;5.20;;;11.10;99.90;;;;;;514048;231;28588;-73
2023/04/28 03:32:00;;;;;;;4.60;4.20;;;11.00;99.90;;;;;;513999;231;28701;-73
2023/04/28 03:34:02;;;;;;;4.70;4.30;;;11.00;99.90;;;;;;514025;231;29374;-73
2023/04/28 03:36:02;;;;;;;3.60;3.30;;;11.00;99.90;;;;;;513917;231;28116;-73
2023/04/28 03:38:03;;;;;;;4.63;3.97;;;11.00;99.90;;;;;;514082;231;28232;-74
2023/04/28 03:40:04;;;;;;;4.90;4.10;;;11.00;99.90;;;;;;514033;231;27982;-73
2023/04/28 03:42:05;;;;;;;7.93;4.40;;;11.00;99.90;;;;;;514053;231;27952;-73
2023/04/28 03:44:07;;;;;;;5.73;4.30;;;11.00;99.90;;;;;;514050;231;28248;-73
2023/04/28 03:46:08;;;;;;;4.37;3.50;;;10.90;99.90;;;;;;514009;231;28249;-73
2023/04/28 03:48:09;;;;;;;4.73;4.23;;;10.90;99.90;;;;;;514041;231;28311;-74
2023/04/28 03:50:11;;;;;;;9.00;4.30;;;10.90;99.90;;;;;;514027;231;27975;-73
2023/04/28 03:52:12;;;;;;;7.17;4.60;;;10.90;99.90;;;;;;514025;231;28621;-73
2023/04/28 03:54:13;;;;;;;5.20;4.47;;;10.90;99.90;;;;;;513974;231;28710;-75
2023/04/28 03:56:14;;;;;;;10.90;4.47;;;10.80;99.90;;;;;;513999;231;28363;-72
2023/04/28 03:58:16;;;;;;;4.33;3.93;;;10.90;99.90;;;;;;514041;231;28226;-73
2023/04/28 04:00:17;;;;;;;4.37;3.97;;;10.80;99.90;;;;;;514020;231;28127;-73
2023/04/28 04:02:18;;;;;;;6.63;3.80;;;10.80;99.90;;;;;;514004;231;28059;-74
2023/04/28 04:04:19;;;;;;;4.27;3.87;;;10.80;99.90;;;;;;513963;231;28055;-73
2023/04/28 04:06:21;;;;;;;4.10;3.47;;;10.80;99.90;;;;;;514056;231;28120;-73
2023/04/28 04:08:22;;;;;;;4.90;3.70;;;10.80;99.90;;;;;;514051;231;28063;-73
2023/04/28 04:10:23;;;;;;;3.90;3.60;;;10.80;99.90;;;;;;514014;231;28007;-73
2023/04/28 04:12:24;;;;;;;4.27;3.87;;;10.80;99.90;;;;;;514018;231;28846;-73
2023/04/28 04:14:26;;;;;;;4.90;4.40;;;10.80;99.90;;;;;;513949;231;28598;-73
2023/04/28 04:16:28;;;;;;;4.70;3.73;;;10.80;99.90;;;;;;514018;231;28628;-73
2023/04/28 04:18:28;;;;;;;5.10;3.73;;;10.80;99.90;;;;;;513963;231;28442;-73
2023/04/28 04:20:29;;;;;;;17.13;4.90;;;10.80;99.90;;;;;;513995;231;28009;-73
2023/04/28 04:22:31;;;;;;;5.97;4.37;;;10.80;99.90;;;;;;514011;231;28287;-72
2023/04/28 04:24:32;;;;;;;6.70;4.43;;;10.80;99.90;;;;;;513969;231;28158;-73
2023/04/28 04:26:33;;;;;;;4.70;4.30;;;10.80;99.90;;;;;;514044;231;27903;-73
2023/04/28 04:28:34;;;;;;;7.00;3.93;;;10.80;99.90;;;;;;514036;231;27951;-73
2023/04/28 04:30:36;;;;;;;4.70;4.20;;;10.80;99.90;;;;;;514024;231;28141;-73
2023/04/28 04:32:37;;;;;;;6.63;3.97;;;10.80;99.90;;;;;;514005;231;28062;-73
2023/04/28 04:34:38;;;;;;;5.67;5.00;;;10.80;99.90;;;;;;513948;231;28034;-72
2023/04/28 04:36:39;;;;;;;6.60;5.10;;;10.80;99.90;;;;;;514035;231;28532;-72
2023/04/28 04:38:41;;;;;;;4.30;3.90;;;10.80;99.90;;;;;;514027;231;28582;-74
2023/04/28 04:40:42;;;;;;;4.57;4.03;;;10.80;99.90;;;;;;514014;231;28451;-73
2023/04/28 04:42:43;;;;;;;5.30;4.20;;;10.80;99.90;;;;;;514013;231;28585;-73
2023/04/28 04:44:44;;;;;;;4.90;4.40;;;10.80;99.90;;;;;;514000;231;27931;-73
2023/04/28 04:46:46;;;;;;;4.87;4.30;;;10.80;99.90;;;;;;514049;231;27913;-73
2023/04/28 04:48:47;;;;;;;4.93;4.10;;;10.80;99.90;;;;;;514039;231;27937;-73
2023/04/28 04:50:48;;;;;;;4.40;4.00;;;10.80;99.90;;;;;;514002;231;27890;-74
2023/04/28 04:52:49;;;;;;;6.10;5.10;;;10.90;99.90;;;;;;513825;231;28053;-72
2023/04/28 04:54:51;;;;;;;4.87;4.20;;;10.80;99.90;;;;;;513945;231;27950;-73
2023/04/28 04:56:52;;;;;;;6.80;4.77;;;10.90;99.90;;;;;;513986;231;28083;-73
2023/04/28 04:58:53;;;;;;;6.40;4.70;;;10.80;99.90;;;;;;514039;231;28319;-73
2023/04/28 05:00:54;;;;;;;5.80;4.20;;;10.80;99.90;;;;;;514036;231;28400;-72
2023/04/28 05:02:56;;;;;;;5.27;3.97;;;10.90;99.90;;;;;;514008;231;28812;-73
2023/04/28 05:04:57;;;;;;;6.43;4.40;;;10.90;99.90;;;;;;514019;231;28706;-73
2023/04/28 05:06:58;;;;;;;7.40;4.70;;;10.90;99.90;;;;;;514063;231;28668;-73
2023/04/28 05:08:59;;;;;;;6.93;5.57;;;10.80;99.90;;;;;;514060;231;28074;-73
2023/04/28 05:11:01;;;;;;;7.97;6.17;;;10.80;99.90;;;;;;514045;231;28021;-73
2023/04/28 05:13:02;;;;;;;5.63;4.63;;;10.80;99.90;;;;;;514016;231;28238;-73
2023/04/28 05:15:03;;;;;;;4.20;3.80;;;10.80;99.90;;;;;;513969;231;28004;-74
2023/04/28 05:17:05;;;;;;;4.97;4.47;;;11.00;99.90;;;;;;514036;231;27898;-73
2023/04/28 05:19:06;;;;;;;7.33;5.40;;;10.90;99.90;;;;;;514022;231;28249;-73
2023/04/28 05:21:07;;;;;;;4.67;4.27;;;10.90;99.90;;;;;;514015;231;28259;-73
2023/04/28 05:23:09;;;;;;;3.80;3.40;;;10.90;99.90;;;;;;513965;231;28362;-73
2023/04/28 05:25:09;;;;;;;5.13;4.67;;;10.90;99.90;;;;;;513818;231;28202;-73
2023/04/28 05:27:11;;;;;;;5.00;4.43;;;10.90;99.90;;;;;;514005;231;28575;-72
2023/04/28 05:29:12;;;;;;;5.07;4.57;;;10.90;99.90;;;;;;514000;231;28573;-73
2023/04/28 05:31:13;;;;;;;9.10;4.10;;;11.00;99.90;;;;;;513995;231;28639;-73
2023/04/28 05:33:14;;;;;;;5.13;3.60;;;11.00;99.90;;;;;;513947;231;28157;-73
2023/04/28 05:35:16;;;;;;;4.77;4.00;;;11.00;99.90;;;;;;513907;231;28001;-73
2023/04/28 05:37:17;;;;;;;7.30;4.80;;;11.00;99.90;;;;;;514060;231;28055;-73
2023/04/28 05:39:18;;;;;;;4.70;4.30;;;11.10;99.90;;;;;;514049;231;28141;-73
2023/04/28 05:41:19;;;;;;;4.00;3.70;;;11.10;99.90;;;;;;514024;231;28132;-73
2023/04/28 05:43:21;;;;;;;4.60;4.20;;;11.10;99.90;;;;;;514031;231;28150;-73
2023/04/28 05:45:22;;;;;;;4.07;3.33;;;11.10;99.90;;;;;;513969;231;28197;-72
2023/04/28 05:47:23;;;;;;;4.50;4.10;;;11.10;99.90;;;;;;514075;231;28145;-73
2023/04/28 05:49:24;;;;;;;5.47;4.40;;;11.20;99.90;;;;;;514054;231;28066;-73
2023/04/28 05:51:26;;;;;;;4.13;3.50;;;11.20;99.90;;;;;;514048;231;28573;-73
2023/04/28 05:53:27;;;;;;;4.57;3.93;;;11.20;99.90;;;;;;514005;231;28728;-72
2023/04/28 05:55:28;;;;;;;8.00;5.53;;;11.20;99.90;;;;;;513957;231;30450;-73
2023/04/28 05:57:29;;;;;;;5.37;4.83;;;11.20;99.90;;;;;;514071;231;28190;-73
2023/04/28 05:59:31;;;;;;;7.00;4.93;;;11.20;99.90;;;;;;514032;231;28265;-73
2023/04/28 06:01:33;;;;;;;4.47;3.90;;;;;;;;;;514050;231;28012;-73
2023/04/28 06:03:34;;;;;;;5.63;5.03;;;11.10;99.90;;;;;;514050;231;27643;-73
2023/04/28 06:05:36;;;;;;;4.70;4.30;;;11.20;99.90;;;;;;514004;231;28820;-73
2023/04/28 06:07:37;;;;;;;3.73;3.43;;;11.20;99.90;;;;;;514055;231;28524;-72
2023/04/28 06:09:38;;;;;;;3.67;3.37;;;11.30;99.90;;;;;;514035;231;28043;-72
2023/04/28 06:11:39;;;;;;;3.60;3.23;;;11.30;99.90;;;;;;514042;231;28233;-73
2023/04/28 06:13:41;;;;;;;3.30;3.00;;;11.30;99.90;;;;;;514023;231;27908;-72
2023/04/28 06:15:42;;;;;;;3.70;3.40;;;11.30;99.90;;;;;;513974;231;28196;-73
2023/04/28 06:17:43;;;;;;;2.97;2.77;;;11.30;99.90;;;;;;514069;231;28211;-73
2023/04/28 06:19:44;;;;;;;2.80;2.60;;;11.40;99.90;;;;;;514054;231;28222;-72
2023/04/28 06:21:46;;;;;;;2.67;2.47;;;11.30;99.90;;;;;;513992;231;28223;-73
2023/04/28 06:23:47;;;;;;;2.90;2.70;;;11.40;99.90;;;;;;514014;231;28210;-72
2023/04/28 06:25:48;;;;;;;2.50;2.30;;;11.40;99.90;;;;;;513955;231;28271;-73
2023/04/28 06:27:49;;;;;;;2.90;2.50;;;11.40;99.90;;;;;;514045;231;28723;-73
2023/04/28 06:29:51;;;;;;;2.83;2.60;;;11.40;99.90;;;;;;514033;231;28567;-72
2023/04/28 06:31:56;;;;;;;1.90;1.80;;;11.50;99.90;;;;;;514069;231;28639;-73
2023/04/28 06:33:53;;;;;;;2.00;1.90;;;11.50;99.90;;;;;;513738;231;28127;-73
2023/04/28 06:35:54;;;;;;;2.00;1.80;;;11.50;99.90;;;;;;514022;231;28224;-72
2023/04/28 06:37:56;;;;;;;2.33;2.10;;;11.50;99.90;;;;;;514056;231;28239;-73
2023/04/28 06:39:57;;;;;;;1.83;1.73;;;11.50;99.90;;;;;;514057;231;27984;-72
2023/04/28 06:41:59;;;;;;;3.80;1.80;;;11.50;99.90;;;;;;514073;231;28169;-73
2023/04/28 06:43:59;;;;;;;5.37;2.40;;;11.50;99.90;;;;;;514048;231;28697;-72
2023/04/28 06:46:01;;;;;;;2.40;1.87;;;11.60;99.90;;;;;;514025;231;28304;-72
2023/04/28 06:48:02;;;;;;;1.60;1.50;;;11.60;99.90;;;;;;514020;231;28383;-73
2023/04/28 06:50:03;;;;;;;1.80;1.70;;;11.60;99.90;;;;;;514032;231;28255;-72
2023/04/28 06:52:06;;;;;;;5.17;1.80;;;11.70;99.90;;;;;;514000;231;29132;-73
2023/04/28 06:54:06;;;;;;;1.73;1.57;;;11.80;99.90;;;;;;513909;231;28477;-73
2023/04/28 06:56:07;;;;;;;1.80;1.70;;;11.80;99.90;;;;;;514014;231;28892;-73
2023/04/28 06:58:08;;;;;;;1.37;1.30;;;11.80;99.90;;;;;;514060;231;28664;-72
2023/04/28 07:00:09;;;;;;;1.47;1.40;;;11.80;99.90;;;;;;513990;231;28095;-72
2023/04/28 07:02:11;;;;;;;2.10;1.60;;;11.90;99.90;;;;;;513973;231;28073;-72
2023/04/28 07:04:12;;;;;;;1.70;1.60;;;11.90;99.90;;;;;;513857;231;28714;-74
2023/04/28 07:06:13;;;;;;;1.67;1.57;;;11.90;99.90;;;;;;513813;231;28656;-72
2023/04/28 07:08:16;;;;;;;2.77;1.83;;;11.90;99.90;;;;;;514044;231;28467;-73
2023/04/28 07:10:16;;;;;;;1.60;1.50;;;11.90;99.90;;;;;;513930;231;28331;-73
2023/04/28 07:12:17;;;;;;;1.20;1.10;;;11.90;99.90;;;;;;514004;231;28840;-72
2023/04/28 07:14:18;;;;;;;1.50;1.40;;;11.90;99.90;;;;;;514022;231;28874;-73
2023/04/28 07:16:20;;;;;;;1.30;1.23;;;11.90;99.90;;;;;;514010;231;28581;-72
2023/04/28 07:18:21;;;;;;;1.40;1.40;;;12.00;99.90;;;;;;513993;231;28488;-73
2023/04/28 07:20:22;;;;;;;1.20;1.10;;;11.90;99.90;;;;;;514012;231;28145;-72
2023/04/28 07:22:23;;;;;;;1.77;1.37;;;11.90;99.90;;;;;;513997;231;27928;-73
2023/04/28 07:24:26;;;;;;;1.60;1.50;;;11.90;99.90;;;;;;513935;231;27899;-73
2023/04/28 07:26:26;;;;;;;1.53;1.43;;;12.00;99.90;;;;;;513982;231;28100;-72
2023/04/28 07:28:27;;;;;;;1.17;1.17;;;12.00;99.90;;;;;;514041;231;28440;-73
2023/04/28 07:30:28;;;;;;;1.47;1.37;;;12.00;99.90;;;;;;514019;231;28369;-73
2023/04/28 07:32:30;;;;;;;1.30;1.20;;;11.90;99.90;;;;;;514019;231;27989;-73
2023/04/28 07:34:31;;;;;;;1.70;1.60;;;12.00;99.90;;;;;;513980;231;29380;-73
2023/04/28 07:36:32;;;;;;;1.40;1.30;;;12.00;99.90;;;;;;514036;231;28719;-73
2023/04/28 07:38:33;;;;;;;1.60;1.33;;;12.10;99.90;;;;;;514040;231;29226;-73
2023/04/28 07:40:35;;;;;;;1.97;1.20;;;12.10;99.90;;;;;;514022;231;28413;-73
2023/04/28 07:42:36;;;;;;;1.10;1.10;;;12.20;99.90;;;;;;514038;231;28667;-73
2023/04/28 07:44:37;;;;;;;2.33;1.33;;;12.30;99.90;;;;;;513971;231;28673;-73
2023/04/28 07:46:38;;;;;;;2.00;1.80;;;12.20;99.90;;;;;;514026;231;28176;-72
2023/04/28 07:48:40;;;;;;;1.30;1.30;;;12.20;99.90;;;;;;514015;231;28132;-73
2023/04/28 07:50:41;;;;;;;1.23;1.13;;;12.20;99.90;;;;;;514008;231;28245;-73
2023/04/28 07:52:42;;;;;;;1.23;1.23;;;12.20;99.90;;;;;;514039;231;28382;-73
2023/04/28 07:54:43;;;;;;;1.10;1.00;;;12.20;99.90;;;;;;513976;231;28245;-74
2023/04/28 07:56:45;;;;;;;1.20;1.20;;;12.20;99.90;;;;;;514023;231;28228;-72
2023/04/28 07:58:46;;;;;;;1.30;1.20;;;12.20;99.90;;;;;;513823;231;28937;-72
2023/04/28 08:00:47;;;;;;;2.50;1.30;;;12.20;99.90;;;;;;514014;231;28685;-73
2023/04/28 08:02:48;;;;;;;1.33;1.23;;;12.30;99.90;;;;;;514016;231;28704;-73
2023/04/28 08:04:51;;;;;;;3.47;1.53;;;;;;;;;;513956;231;28263;-73
2023/04/28 08:06:52;;;;;;;1.40;1.30;;;12.30;99.90;;;;;;514034;231;26949;-73
2023/04/28 08:08:53;;;;;;;1.13;1.13;;;12.40;99.90;;;;;;514032;231;28339;-72
2023/04/28 08:10:54;;;;;;;1.57;1.47;;;12.40;99.90;;;;;;514028;231;29228;-73
2023/04/28 08:12:56;;;;;;;1.37;1.27;;;12.60;99.90;;;;;;514086;231;28577;-73
2023/04/28 08:14:57;;;;;;;1.40;1.30;;;12.70;99.90;;;;;;514000;231;28586;-72
2023/04/28 08:16:58;;;;;;;1.30;1.20;;;12.00;99.90;;;;;;514073;231;28172;-73
2023/04/28 08:19:00;;;;;;;1.60;1.50;;;12.70;99.90;;;;;;514021;231;28244;-72
2023/04/28 08:21:01;;;;;;;1.60;1.50;;;12.80;99.90;;;;;;514022;231;28060;-73
2023/04/28 08:23:02;;;;;;;1.83;1.60;;;12.60;99.90;;;;;;514054;231;28131;-74
2023/04/28 08:25:03;;;;;;;1.80;1.70;;;12.90;99.90;;;;;;513952;231;28178;-73
2023/04/28 08:27:04;;;;;;;1.40;1.40;;;13.00;99.90;;;;;;514023;231;28073;-73
2023/04/28 08:29:06;;;;;;;1.87;1.77;;;13.10;99.90;;;;;;514027;231;28008;-72
2023/04/28 08:31:07;;;;;;;1.80;1.70;;;13.10;99.90;;;;;;514019;231;28046;-72
2023/04/28 08:33:08;;;;;;;2.03;1.93;;;13.00;99.90;;;;;;514028;231;28057;-73
2023/04/28 08:35:09;;;;;;;2.50;2.30;;;13.20;99.90;;;;;;513907;231;28567;-72
2023/04/28 08:37:11;;;;;;;2.30;2.20;;;13.20;99.90;;;;;;513963;231;28806;-72
2023/04/28 08:39:12;;;;;;;3.20;2.90;;;13.20;99.90;;;;;;513962;231;28598;-73
2023/04/28 08:41:13;;;;;;;2.67;2.47;;;13.30;99.90;;;;;;514036;231;28015;-72
2023/04/28 08:43:15;;;;;;;3.20;2.57;;;13.40;99.90;;;;;;514013;231;28238;-73
2023/04/28 08:45:16;;;;;;;2.53;2.33;;;13.50;99.90;;;;;;513959;231;28520;-73
2023/04/28 08:47:17;;;;;;;2.87;2.57;;;13.50;99.90;;;;;;514026;231;28552;-73
2023/04/28 08:49:18;;;;;;;2.93;2.73;;;13.60;99.90;;;;;;513973;231;28285;-73
2023/04/28 08:51:19;;;;;;;3.53;3.23;;;13.80;99.90;;;;;;514007;231;28396;-72
2023/04/28 08:53:21;;;;;;;2.70;2.50;;;13.80;99.90;;;;;;513920;231;28705;-73
2023/04/28 08:55:22;;;;;;;3.93;2.83;;;13.80;99.90;;;;;;513953;231;28315;-73
2023/04/28 08:57:23;;;;;;;2.70;2.50;;;13.90;99.90;;;;;;513979;231;28443;-72
2023/04/28 08:59:24;;;;;;;3.83;3.53;;;13.80;99.90;;;;;;514039;231;28817;-72
2023/04/28 09:01:26;;;;;;;3.57;3.27;;;13.80;99.90;;;;;;514020;231;28787;-72
2023/04/28 09:03:27;;;;;;;3.17;2.87;;;13.80;99.90;;;;;;514001;231;29193;-74
2023/04/28 09:05:28;;;;;;;2.90;2.70;;;13.90;99.90;;;;;;513949;231;28494;-72
2023/04/28 09:07:29;;;;;;;3.03;2.83;;;13.90;99.90;;;;;;514006;231;28269;-73
2023/04/28 09:09:31;;;;;;;3.93;2.80;;;14.00;99.90;;;;;;514058;231;28261;-72
2023/04/28 09:11:32;;;;;;;3.43;3.13;;;14.00;99.90;;;;;;514075;231;28407;-72
2023/04/28 09:13:33;;;;;;;3.30;3.10;;;14.10;99.90;;;;;;514013;231;28755;-73
2023/04/28 09:15:35;;;;;;;2.77;2.63;;;14.10;99.90;;;;;;513980;231;28144;-72
2023/04/28 09:17:36;;;;;;;2.90;2.70;;;14.10;99.90;;;;;;513998;231;28283;-73
2023/04/28 09:19:37;;;;;;;3.30;3.10;;;14.00;99.90;;;;;;514070;231;28386;-74
2023/04/28 09:21:38;;;;;;;3.10;2.90;;;13.90;99.90;;;;;;514008;231;28448;-72
2023/04/28 09:23:40;;;;;;;3.50;3.20;;;14.00;99.90;;;;;;514034;231;29172;-73
2023/04/28 09:25:41;;;;;;;3.07;2.87;;;13.90;99.90;;;;;;513980;231;29195;-72
2023/04/28 09:27:42;;;;;;;3.10;2.90;;;13.90;99.90;;;;;;511636;231;36318;-72
2023/04/28 09:29:43;;;;;;;2.47;2.37;;;13.90;99.90;;;;;;514036;231;27436;-73
2023/04/28 09:31:44;;;;;;;2.70;2.50;;;13.80;99.90;;;;;;514052;231;28708;-72
2023/04/28 09:33:46;;;;;;;8.23;2.90;;;13.80;99.90;;;;;;514005;231;28692;-72
2023/04/28 09:35:47;;;;;;;2.67;2.50;;;13.80;99.90;;;;;;513951;231;28720;-72
2023/04/28 09:37:48;;;;;;;4.30;3.13;;;13.80;99.90;;;;;;514026;231;28368;-73
2023/04/28 09:39:50;;;;;;;2.70;2.50;;;13.80;99.90;;;;;;514050;231;28808;-74
2023/04/28 09:41:51;;;;;;;3.23;2.53;;;13.90;99.90;;;;;;514067;231;28634;-71
2023/04/28 09:43:52;;;;;;;2.70;2.50;;;14.00;99.90;;;;;;514063;231;28742;-72
2023/04/28 09:45:53;;;;;;;3.40;2.40;;;14.00;99.90;;;;;;513984;231;29122;-72
2023/04/28 09:47:55;;;;;;;5.63;2.30;;;14.00;99.90;;;;;;514030;231;29208;-73
2023/04/28 09:49:56;;;;;;;2.40;2.17;;;14.00;99.90;;;;;;514077;231;29338;-73
2023/04/28 09:51:57;;;;;;;1.80;1.70;;;14.00;99.90;;;;;;514079;231;28636;-73
2023/04/28 09:53:58;;;;;;;1.70;1.60;;;14.00;99.90;;;;;;514026;231;28687;-73
2023/04/28 09:56:00;;;;;;;1.80;1.70;;;13.90;99.90;;;;;;513786;231;28607;-72
2023/04/28 09:58:01;;;;;;;1.50;1.40;;;13.90;99.90;;;;;;514019;231;28676;-72
2023/04/28 10:00:05;;;;;;;1.63;1.50;;;13.80;99.90;;;;;;514028;231;29038;-72
2023/04/28 10:02:03;;;;;;;1.67;1.57;;;13.80;99.90;;;;;;513856;231;28638;-72
2023/04/28 10:04:05;;;;;;;4.63;1.60;;;13.70;99.90;;;;;;514036;231;28682;-74
2023/04/28 10:06:07;;;;;;;1.40;1.30;;;13.70;99.90;;;;;;513939;231;28239;-73
2023/04/28 10:08:07;;;;;;;3.53;1.40;;;13.80;99.90;;;;;;513956;231;28260;-72
2023/04/28 10:10:08;;;;;;;1.50;1.40;;;13.80;99.90;;;;;;514068;231;28773;-73
2023/04/28 10:12:10;;;;;;;2.73;1.20;;;13.80;99.90;;;;;;514055;231;29090;-72
2023/04/28 10:14:11;;;;;;;1.07;0.97;;;13.90;99.90;;;;;;514012;231;29241;-75
2023/04/28 10:16:12;;;;;;;1.67;1.23;;;13.90;99.90;;;;;;513993;231;29179;-72
2023/04/28 10:18:17;;;;;;;1.50;1.40;;;14.00;99.90;;;;;;514003;231;28354;-73
2023/04/28 10:20:18;;;;;;;1.10;1.10;;;14.10;99.90;;;;;;513993;231;28789;-73
2023/04/28 10:22:18;;;;;;;1.70;1.10;;;14.20;99.90;;;;;;514018;231;28870;-72
2023/04/28 10:24:20;;;;;;;1.03;0.93;;;14.30;99.90;;;;;;514018;231;28724;-74
2023/04/28 10:26:22;;;;;;;0.97;0.97;;;14.30;99.90;;;;;;514031;231;29230;-73
2023/04/28 10:28:22;;;;;;;0.83;0.83;;;14.40;99.90;;;;;;513970;231;29051;-72
2023/04/28 10:30:24;;;;;;;1.17;1.10;;;14.40;99.90;;;;;;514000;231;28629;-73
2023/04/28 10:32:27;;;;;;;1.00;0.97;;;14.50;99.90;;;;;;513969;231;28719;-75